sensor_id;sensor_type;location;lat;lon;timestamp;P1;durP1;ratioP1;P2;durP2;ratioP2
74833;SDS011;63361;52.384;20.930;2023-02-21T00:02:36;3.20;;;0.97;;
74833;SDS011;63361;52.384;20.930;2023-02-21T00:05:20;1.98;;;0.80;;
74833;SDS011;63361;52.384;20.930;2023-02-21T00:08:04;4.15;;;1.20;;
74833;SDS011;63361;52.384;20.930;2023-02-21T00:10:48;3.70;;;1.20;;
74833;SDS011;63361;52.384;20.930;2023-02-21T00:13:34;5.03;;;1.70;;
74833;SDS011;63361;52.384;20.930;2023-02-21T00:16:19;6.83;;;2.33;;
74833;SDS011;63361;52.384;20.930;2023-02-21T00:19:03;5.03;;;2.08;;
74833;SDS011;63361;52.384;20.930;2023-02-21T00:21:47;5.93;;;2.25;;
74833;SDS011;63361;52.384;20.930;2023-02-21T00:24:31;4.03;;;1.60;;
74833;SDS011;63361;52.384;20.930;2023-02-21T00:27:15;4.18;;;1.45;;
74833;SDS011;63361;52.384;20.930;2023-02-21T00:30:00;4.93;;;1.40;;
74833;SDS011;63361;52.384;20.930;2023-02-21T00:32:44;4.22;;;1.17;;
74833;SDS011;63361;52.384;20.930;2023-02-21T00:35:27;7.47;;;1.30;;
74833;SDS011;63361;52.384;20.930;2023-02-21T00:38:11;4.65;;;1.00;;
74833;SDS011;63361;52.384;20.930;2023-02-21T00:40:55;6.93;;;1.58;;
74833;SDS011;63361;52.384;20.930;2023-02-21T00:43:39;3.60;;;1.47;;
74833;SDS011;63361;52.384;20.930;2023-02-21T00:46:23;5.15;;;1.48;;
74833;SDS011;63361;52.384;20.930;2023-02-21T00:49:07;4.32;;;1.50;;
74833;SDS011;63361;52.384;20.930;2023-02-21T00:51:51;7.50;;;1.90;;
74833;SDS011;63361;52.384;20.930;2023-02-21T00:54:35;4.50;;;1.55;;
74833;SDS011;63361;52.384;20.930;2023-02-21T00:57:20;4.20;;;1.47;;
74833;SDS011;63361;52.384;20.930;2023-02-21T01:00:05;5.30;;;1.75;;
74833;SDS011;63361;52.384;20.930;2023-02-21T01:02:51;4.85;;;1.83;;
74833;SDS011;63361;52.384;20.930;2023-02-21T01:05:35;3.70;;;1.45;;
74833;SDS011;63361;52.384;20.930;2023-02-21T01:08:18;4.10;;;1.83;;
74833;SDS011;63361;52.384;20.930;2023-02-21T01:11:02;4.33;;;1.20;;
74833;SDS011;63361;52.384;20.930;2023-02-21T01:13:46;4.80;;;1.20;;
74833;SDS011;63361;52.384;20.930;2023-02-21T01:16:31;4.03;;;1.20;;
74833;SDS011;63361;52.384;20.930;2023-02-21T01:19:16;4.13;;;1.20;;
74833;SDS011;63361;52.384;20.930;2023-02-21T01:22:01;3.47;;;1.48;;
74833;SDS011;63361;52.384;20.930;2023-02-21T01:24:49;2.50;;;0.93;;
74833;SDS011;63361;52.384;20.930;2023-02-21T01:27:34;4.53;;;1.20;;
74833;SDS011;63361;52.384;20.930;2023-02-21T01:30:18;3.13;;;1.40;;
74833;SDS011;63361;52.384;20.930;2023-02-21T01:33:02;4.13;;;1.27;;
74833;SDS011;63361;52.384;20.930;2023-02-21T01:35:46;5.10;;;1.55;;
74833;SDS011;63361;52.384;20.930;2023-02-21T01:38:34;3.73;;;1.40;;
74833;SDS011;63361;52.384;20.930;2023-02-21T01:41:18;5.82;;;2.60;;
74833;SDS011;63361;52.384;20.930;2023-02-21T01:44:21;3.92;;;1.50;;
74833;SDS011;63361;52.384;20.930;2023-02-21T01:47:10;5.43;;;1.20;;
74833;SDS011;63361;52.384;20.930;2023-02-21T01:49:54;5.15;;;1.25;;
74833;SDS011;63361;52.384;20.930;2023-02-21T01:52:38;3.97;;;0.90;;
74833;SDS011;63361;52.384;20.930;2023-02-21T01:55:23;4.97;;;1.02;;
74833;SDS011;63361;52.384;20.930;2023-02-21T01:58:07;4.57;;;1.10;;
74833;SDS011;63361;52.384;20.930;2023-02-21T02:00:51;5.90;;;1.13;;
74833;SDS011;63361;52.384;20.930;2023-02-21T02:03:35;3.80;;;1.02;;
74833;SDS011;63361;52.384;20.930;2023-02-21T02:06:21;4.47;;;0.93;;
74833;SDS011;63361;52.384;20.930;2023-02-21T02:09:08;4.85;;;1.55;;
74833;SDS011;63361;52.384;20.930;2023-02-21T02:12:05;5.85;;;0.75;;
74833;SDS011;63361;52.384;20.930;2023-02-21T02:20:15;6.63;;;1.67;;
74833;SDS011;63361;52.384;20.930;2023-02-21T02:39:39;6.57;;;0.80;;
74833;SDS011;63361;52.384;20.930;2023-02-21T02:44:41;7.90;;;1.33;;
74833;SDS011;63361;52.384;20.930;2023-02-21T02:47:23;5.07;;;0.83;;
74833;SDS011;63361;52.384;20.930;2023-02-21T02:49:54;8.13;;;1.25;;
74833;SDS011;63361;52.384;20.930;2023-02-21T02:52:19;8.82;;;1.10;;
74833;SDS011;63361;52.384;20.930;2023-02-21T02:54:55;5.93;;;1.20;;
74833;SDS011;63361;52.384;20.930;2023-02-21T02:57:22;8.98;;;2.17;;
74833;SDS011;63361;52.384;20.930;2023-02-21T02:59:47;5.20;;;1.17;;
74833;SDS011;63361;52.384;20.930;2023-02-21T03:10:51;4.85;;;1.50;;
74833;SDS011;63361;52.384;20.930;2023-02-21T03:16:07;5.80;;;1.40;;
74833;SDS011;63361;52.384;20.930;2023-02-21T03:18:44;8.48;;;1.15;;
74833;SDS011;63361;52.384;20.930;2023-02-21T03:21:17;6.68;;;1.33;;
74833;SDS011;63361;52.384;20.930;2023-02-21T03:23:47;7.05;;;1.60;;
74833;SDS011;63361;52.384;20.930;2023-02-21T03:26:17;5.82;;;1.17;;
74833;SDS011;63361;52.384;20.930;2023-02-21T03:28:43;5.57;;;1.17;;
74833;SDS011;63361;52.384;20.930;2023-02-21T03:31:10;7.25;;;1.08;;
74833;SDS011;63361;52.384;20.930;2023-02-21T03:33:38;8.70;;;1.40;;
74833;SDS011;63361;52.384;20.930;2023-02-21T03:36:05;12.80;;;1.40;;
74833;SDS011;63361;52.384;20.930;2023-02-21T03:38:32;5.95;;;1.35;;
74833;SDS011;63361;52.384;20.930;2023-02-21T03:40:58;7.13;;;1.53;;
74833;SDS011;63361;52.384;20.930;2023-02-21T03:43:23;8.67;;;1.30;;
74833;SDS011;63361;52.384;20.930;2023-02-21T03:45:48;9.50;;;1.30;;
74833;SDS011;63361;52.384;20.930;2023-02-21T03:48:14;8.90;;;1.43;;
74833;SDS011;63361;52.384;20.930;2023-02-21T03:50:39;5.47;;;0.98;;
74833;SDS011;63361;52.384;20.930;2023-02-21T03:53:05;6.77;;;1.23;;
74833;SDS011;63361;52.384;20.930;2023-02-21T03:55:30;7.43;;;1.47;;
74833;SDS011;63361;52.384;20.930;2023-02-21T03:57:55;6.83;;;0.73;;
74833;SDS011;63361;52.384;20.930;2023-02-21T04:00:21;7.23;;;1.27;;
74833;SDS011;63361;52.384;20.930;2023-02-21T04:02:46;7.97;;;0.80;;
74833;SDS011;63361;52.384;20.930;2023-02-21T04:05:12;7.77;;;1.00;;
74833;SDS011;63361;52.384;20.930;2023-02-21T04:07:37;4.80;;;0.97;;
74833;SDS011;63361;52.384;20.930;2023-02-21T04:10:03;7.60;;;1.73;;
74833;SDS011;63361;52.384;20.930;2023-02-21T04:12:28;6.10;;;0.80;;
74833;SDS011;63361;52.384;20.930;2023-02-21T04:14:54;10.00;;;0.90;;
74833;SDS011;63361;52.384;20.930;2023-02-21T04:17:20;5.72;;;1.08;;
74833;SDS011;63361;52.384;20.930;2023-02-21T04:19:46;6.90;;;0.97;;
74833;SDS011;63361;52.384;20.930;2023-02-21T04:22:11;5.37;;;0.80;;
74833;SDS011;63361;52.384;20.930;2023-02-21T04:24:36;5.17;;;1.00;;
74833;SDS011;63361;52.384;20.930;2023-02-21T04:27:01;10.33;;;1.47;;
74833;SDS011;63361;52.384;20.930;2023-02-21T04:29:27;6.63;;;1.53;;
74833;SDS011;63361;52.384;20.930;2023-02-21T04:31:52;8.43;;;1.43;;
74833;SDS011;63361;52.384;20.930;2023-02-21T04:34:19;5.50;;;1.20;;
74833;SDS011;63361;52.384;20.930;2023-02-21T04:36:45;7.10;;;1.30;;
74833;SDS011;63361;52.384;20.930;2023-02-21T04:39:10;6.78;;;1.95;;
74833;SDS011;63361;52.384;20.930;2023-02-21T04:41:35;7.60;;;1.33;;
74833;SDS011;63361;52.384;20.930;2023-02-21T04:44:01;6.43;;;1.20;;
74833;SDS011;63361;52.384;20.930;2023-02-21T04:46:26;6.63;;;1.30;;
74833;SDS011;63361;52.384;20.930;2023-02-21T04:48:52;8.00;;;1.23;;
74833;SDS011;63361;52.384;20.930;2023-02-21T04:51:18;9.65;;;1.38;;
74833;SDS011;63361;52.384;20.930;2023-02-21T04:53:46;11.30;;;1.65;;
74833;SDS011;63361;52.384;20.930;2023-02-21T04:56:13;10.27;;;2.20;;
74833;SDS011;63361;52.384;20.930;2023-02-21T04:58:39;10.05;;;1.80;;
74833;SDS011;63361;52.384;20.930;2023-02-21T05:01:05;6.35;;;1.40;;
74833;SDS011;63361;52.384;20.930;2023-02-21T05:03:31;7.27;;;1.60;;
74833;SDS011;63361;52.384;20.930;2023-02-21T05:05:56;10.27;;;2.40;;
74833;SDS011;63361;52.384;20.930;2023-02-21T05:08:21;10.73;;;2.47;;
74833;SDS011;63361;52.384;20.930;2023-02-21T05:10:48;9.32;;;2.17;;
74833;SDS011;63361;52.384;20.930;2023-02-21T05:13:13;13.55;;;2.10;;
74833;SDS011;63361;52.384;20.930;2023-02-21T05:15:39;9.57;;;2.57;;
74833;SDS011;63361;52.384;20.930;2023-02-21T05:18:04;14.33;;;2.10;;
74833;SDS011;63361;52.384;20.930;2023-02-21T05:20:29;9.07;;;1.93;;
74833;SDS011;63361;52.384;20.930;2023-02-21T05:22:55;9.00;;;2.30;;
74833;SDS011;63361;52.384;20.930;2023-02-21T05:25:21;16.50;;;2.23;;
74833;SDS011;63361;52.384;20.930;2023-02-21T05:27:47;10.18;;;1.75;;
74833;SDS011;63361;52.384;20.930;2023-02-21T05:30:15;13.60;;;2.03;;
74833;SDS011;63361;52.384;20.930;2023-02-21T05:32:41;12.05;;;1.80;;
74833;SDS011;63361;52.384;20.930;2023-02-21T05:35:08;11.40;;;1.87;;
74833;SDS011;63361;52.384;20.930;2023-02-21T05:37:34;11.23;;;1.67;;
74833;SDS011;63361;52.384;20.930;2023-02-21T05:39:59;12.37;;;1.70;;
74833;SDS011;63361;52.384;20.930;2023-02-21T05:42:24;13.15;;;1.70;;
74833;SDS011;63361;52.384;20.930;2023-02-21T05:44:50;9.73;;;2.47;;
74833;SDS011;63361;52.384;20.930;2023-02-21T05:47:15;7.37;;;1.60;;
74833;SDS011;63361;52.384;20.930;2023-02-21T05:49:41;6.63;;;1.80;;
74833;SDS011;63361;52.384;20.930;2023-02-21T05:52:07;9.85;;;2.20;;
74833;SDS011;63361;52.384;20.930;2023-02-21T05:54:35;12.18;;;1.95;;
74833;SDS011;63361;52.384;20.930;2023-02-21T05:57:00;9.47;;;1.87;;
74833;SDS011;63361;52.384;20.930;2023-02-21T05:59:26;11.67;;;2.20;;
74833;SDS011;63361;52.384;20.930;2023-02-21T06:01:51;9.20;;;1.70;;
74833;SDS011;63361;52.384;20.930;2023-02-21T06:04:17;6.30;;;1.90;;
74833;SDS011;63361;52.384;20.930;2023-02-21T06:06:42;8.65;;;2.08;;
74833;SDS011;63361;52.384;20.930;2023-02-21T06:09:08;12.30;;;2.13;;
74833;SDS011;63361;52.384;20.930;2023-02-21T06:11:35;8.77;;;2.03;;
74833;SDS011;63361;52.384;20.930;2023-02-21T06:14:02;10.07;;;1.50;;
74833;SDS011;63361;52.384;20.930;2023-02-21T06:16:33;11.55;;;2.05;;
74833;SDS011;63361;52.384;20.930;2023-02-21T06:18:59;9.40;;;1.67;;
74833;SDS011;63361;52.384;20.930;2023-02-21T06:21:24;9.10;;;1.87;;
74833;SDS011;63361;52.384;20.930;2023-02-21T06:23:50;11.13;;;3.13;;
74833;SDS011;63361;52.384;20.930;2023-02-21T06:26:15;8.00;;;2.00;;
74833;SDS011;63361;52.384;20.930;2023-02-21T06:28:42;10.45;;;1.92;;
74833;SDS011;63361;52.384;20.930;2023-02-21T06:31:07;15.33;;;2.30;;
74833;SDS011;63361;52.384;20.930;2023-02-21T06:33:33;9.63;;;2.20;;
74833;SDS011;63361;52.384;20.930;2023-02-21T06:36:02;10.30;;;2.07;;
74833;SDS011;63361;52.384;20.930;2023-02-21T06:38:29;11.57;;;1.90;;
74833;SDS011;63361;52.384;20.930;2023-02-21T06:40:54;7.67;;;1.97;;
74833;SDS011;63361;52.384;20.930;2023-02-21T06:43:19;13.27;;;2.10;;
74833;SDS011;63361;52.384;20.930;2023-02-21T06:45:45;18.20;;;2.35;;
74833;SDS011;63361;52.384;20.930;2023-02-21T06:48:13;11.77;;;2.30;;
74833;SDS011;63361;52.384;20.930;2023-02-21T06:50:42;10.43;;;1.67;;
74833;SDS011;63361;52.384;20.930;2023-02-21T06:53:07;7.43;;;2.05;;
74833;SDS011;63361;52.384;20.930;2023-02-21T06:55:33;10.02;;;1.80;;
74833;SDS011;63361;52.384;20.930;2023-02-21T06:57:59;12.23;;;2.00;;
74833;SDS011;63361;52.384;20.930;2023-02-21T07:00:24;8.15;;;1.63;;
74833;SDS011;63361;52.384;20.930;2023-02-21T07:02:53;8.65;;;2.35;;
74833;SDS011;63361;52.384;20.930;2023-02-21T07:05:19;11.53;;;2.33;;
74833;SDS011;63361;52.384;20.930;2023-02-21T07:07:44;10.55;;;2.80;;
74833;SDS011;63361;52.384;20.930;2023-02-21T07:10:11;10.17;;;2.07;;
74833;SDS011;63361;52.384;20.930;2023-02-21T07:12:37;13.07;;;2.40;;
74833;SDS011;63361;52.384;20.930;2023-02-21T07:15:04;11.18;;;2.55;;
74833;SDS011;63361;52.384;20.930;2023-02-21T07:17:30;12.15;;;2.75;;
74833;SDS011;63361;52.384;20.930;2023-02-21T07:19:55;10.03;;;2.27;;
74833;SDS011;63361;52.384;20.930;2023-02-21T07:22:21;7.95;;;2.15;;
74833;SDS011;63361;52.384;20.930;2023-02-21T07:24:53;10.20;;;2.10;;
74833;SDS011;63361;52.384;20.930;2023-02-21T07:27:20;12.07;;;2.47;;
74833;SDS011;63361;52.384;20.930;2023-02-21T07:29:48;12.30;;;2.53;;
74833;SDS011;63361;52.384;20.930;2023-02-21T07:32:15;10.23;;;2.08;;
74833;SDS011;63361;52.384;20.930;2023-02-21T07:34:41;9.88;;;2.03;;
74833;SDS011;63361;52.384;20.930;2023-02-21T07:37:07;8.57;;;1.73;;
74833;SDS011;63361;52.384;20.930;2023-02-21T07:39:33;16.60;;;1.98;;
74833;SDS011;63361;52.384;20.930;2023-02-21T07:41:59;10.53;;;1.83;;
74833;SDS011;63361;52.384;20.930;2023-02-21T07:44:24;14.13;;;1.97;;
74833;SDS011;63361;52.384;20.930;2023-02-21T07:46:49;12.93;;;2.27;;
74833;SDS011;63361;52.384;20.930;2023-02-21T07:49:15;11.00;;;2.00;;
74833;SDS011;63361;52.384;20.930;2023-02-21T07:51:41;8.70;;;1.27;;
74833;SDS011;63361;52.384;20.930;2023-02-21T07:54:06;11.40;;;1.63;;
74833;SDS011;63361;52.384;20.930;2023-02-21T07:56:32;9.53;;;1.60;;
74833;SDS011;63361;52.384;20.930;2023-02-21T07:58:58;10.15;;;1.35;;
74833;SDS011;63361;52.384;20.930;2023-02-21T08:01:24;7.33;;;1.30;;
74833;SDS011;63361;52.384;20.930;2023-02-21T08:03:50;8.77;;;2.05;;
74833;SDS011;63361;52.384;20.930;2023-02-21T08:06:16;7.60;;;1.60;;
74833;SDS011;63361;52.384;20.930;2023-02-21T08:08:42;13.30;;;1.70;;
74833;SDS011;63361;52.384;20.930;2023-02-21T08:11:08;13.90;;;1.85;;
74833;SDS011;63361;52.384;20.930;2023-02-21T08:13:33;12.73;;;1.50;;
74833;SDS011;63361;52.384;20.930;2023-02-21T08:15:59;7.70;;;2.15;;
74833;SDS011;63361;52.384;20.930;2023-02-21T08:18:25;11.57;;;1.83;;
74833;SDS011;63361;52.384;20.930;2023-02-21T08:20:51;12.73;;;2.15;;
74833;SDS011;63361;52.384;20.930;2023-02-21T08:23:18;10.63;;;2.05;;
74833;SDS011;63361;52.384;20.930;2023-02-21T08:25:45;12.70;;;2.22;;
74833;SDS011;63361;52.384;20.930;2023-02-21T08:28:11;11.00;;;1.50;;
74833;SDS011;63361;52.384;20.930;2023-02-21T08:30:37;12.98;;;2.35;;
74833;SDS011;63361;52.384;20.930;2023-02-21T08:33:02;10.85;;;2.53;;
74833;SDS011;63361;52.384;20.930;2023-02-21T08:35:28;9.60;;;1.90;;
74833;SDS011;63361;52.384;20.930;2023-02-21T08:37:54;12.53;;;2.23;;
74833;SDS011;63361;52.384;20.930;2023-02-21T08:40:22;12.03;;;2.20;;
74833;SDS011;63361;52.384;20.930;2023-02-21T08:42:49;12.65;;;2.75;;
74833;SDS011;63361;52.384;20.930;2023-02-21T08:45:17;15.05;;;2.78;;
74833;SDS011;63361;52.384;20.930;2023-02-21T08:47:47;10.43;;;2.85;;
74833;SDS011;63361;52.384;20.930;2023-02-21T08:50:13;9.80;;;1.95;;
74833;SDS011;63361;52.384;20.930;2023-02-21T08:52:39;10.07;;;2.77;;
74833;SDS011;63361;52.384;20.930;2023-02-21T08:55:05;12.60;;;2.63;;
74833;SDS011;63361;52.384;20.930;2023-02-21T08:57:30;16.95;;;3.05;;
74833;SDS011;63361;52.384;20.930;2023-02-21T08:59:58;13.30;;;3.30;;
74833;SDS011;63361;52.384;20.930;2023-02-21T09:02:24;12.87;;;3.07;;
74833;SDS011;63361;52.384;20.930;2023-02-21T09:04:50;12.50;;;3.15;;
74833;SDS011;63361;52.384;20.930;2023-02-21T09:07:17;14.43;;;2.85;;
74833;SDS011;63361;52.384;20.930;2023-02-21T09:09:44;10.00;;;2.67;;
74833;SDS011;63361;52.384;20.930;2023-02-21T09:12:10;11.07;;;2.90;;
74833;SDS011;63361;52.384;20.930;2023-02-21T09:14:36;12.02;;;3.85;;
74833;SDS011;63361;52.384;20.930;2023-02-21T09:17:03;14.63;;;3.73;;
74833;SDS011;63361;52.384;20.930;2023-02-21T09:19:30;22.73;;;5.50;;
74833;SDS011;63361;52.384;20.930;2023-02-21T09:21:55;18.67;;;4.00;;
74833;SDS011;63361;52.384;20.930;2023-02-21T09:24:21;15.53;;;2.60;;
74833;SDS011;63361;52.384;20.930;2023-02-21T09:26:50;12.90;;;3.28;;
74833;SDS011;63361;52.384;20.930;2023-02-21T09:29:19;13.53;;;2.57;;
74833;SDS011;63361;52.384;20.930;2023-02-21T09:31:46;11.68;;;2.92;;
74833;SDS011;63361;52.384;20.930;2023-02-21T09:34:12;12.30;;;3.00;;
74833;SDS011;63361;52.384;20.930;2023-02-21T09:36:37;8.70;;;2.27;;
74833;SDS011;63361;52.384;20.930;2023-02-21T09:39:03;13.50;;;3.20;;
74833;SDS011;63361;52.384;20.930;2023-02-21T09:41:30;16.17;;;3.35;;
74833;SDS011;63361;52.384;20.930;2023-02-21T09:43:57;15.45;;;3.88;;
74833;SDS011;63361;52.384;20.930;2023-02-21T09:49:00;6.75;;;1.95;;
74833;SDS011;63361;52.384;20.930;2023-02-21T09:51:28;11.57;;;2.78;;
74833;SDS011;63361;52.384;20.930;2023-02-21T09:53:55;16.42;;;2.58;;
74833;SDS011;63361;52.384;20.930;2023-02-21T09:56:30;11.55;;;1.77;;
74833;SDS011;63361;52.384;20.930;2023-02-21T09:59:01;12.53;;;2.97;;
74833;SDS011;63361;52.384;20.930;2023-02-21T10:02:13;8.73;;;1.90;;
74833;SDS011;63361;52.384;20.930;2023-02-21T10:06:48;14.88;;;2.60;;
74833;SDS011;63361;52.384;20.930;2023-02-21T10:09:22;10.50;;;2.13;;
74833;SDS011;63361;52.384;20.930;2023-02-21T10:12:07;10.20;;;2.73;;
74833;SDS011;63361;52.384;20.930;2023-02-21T10:17:24;14.90;;;3.00;;
74833;SDS011;63361;52.384;20.930;2023-02-21T10:20:01;14.63;;;2.67;;
74833;SDS011;63361;52.384;20.930;2023-02-21T10:22:32;8.95;;;2.00;;
74833;SDS011;63361;52.384;20.930;2023-02-21T10:25:06;13.57;;;2.63;;
74833;SDS011;63361;52.384;20.930;2023-02-21T10:27:44;8.45;;;1.55;;
74833;SDS011;63361;52.384;20.930;2023-02-21T10:30:10;11.57;;;1.87;;
74833;SDS011;63361;52.384;20.930;2023-02-21T10:32:46;7.75;;;1.63;;
74833;SDS011;63361;52.384;20.930;2023-02-21T10:35:12;7.73;;;1.30;;
74833;SDS011;63361;52.384;20.930;2023-02-21T10:37:38;10.67;;;1.43;;
74833;SDS011;63361;52.384;20.930;2023-02-21T10:43:10;7.00;;;1.60;;
74833;SDS011;63361;52.384;20.930;2023-02-21T10:45:41;11.27;;;1.67;;
74833;SDS011;63361;52.384;20.930;2023-02-21T10:48:12;9.88;;;1.67;;
74833;SDS011;63361;52.384;20.930;2023-02-21T10:50:40;9.20;;;1.30;;
74833;SDS011;63361;52.384;20.930;2023-02-21T10:53:26;12.90;;;1.65;;
74833;SDS011;63361;52.384;20.930;2023-02-21T10:56:37;11.02;;;2.85;;
74833;SDS011;63361;52.384;20.930;2023-02-21T11:01:30;7.78;;;2.22;;
74833;SDS011;63361;52.384;20.930;2023-02-21T11:03:59;10.03;;;1.73;;
74833;SDS011;63361;52.384;20.930;2023-02-21T11:06:33;8.85;;;1.85;;
74833;SDS011;63361;52.384;20.930;2023-02-21T11:12:04;8.45;;;1.38;;
74833;SDS011;63361;52.384;20.930;2023-02-21T11:17:21;9.83;;;1.73;;
74833;SDS011;63361;52.384;20.930;2023-02-21T11:22:23;9.07;;;1.67;;
74833;SDS011;63361;52.384;20.930;2023-02-21T11:25:02;9.93;;;1.80;;
74833;SDS011;63361;52.384;20.930;2023-02-21T11:27:31;13.05;;;2.00;;
74833;SDS011;63361;52.384;20.930;2023-02-21T11:29:58;9.93;;;1.63;;
74833;SDS011;63361;52.384;20.930;2023-02-21T11:32:29;9.20;;;1.85;;
74833;SDS011;63361;52.384;20.930;2023-02-21T11:35:01;10.52;;;2.35;;
74833;SDS011;63361;52.384;20.930;2023-02-21T11:37:30;11.70;;;2.33;;
74833;SDS011;63361;52.384;20.930;2023-02-21T11:39:56;16.67;;;2.42;;
74833;SDS011;63361;52.384;20.930;2023-02-21T11:42:33;10.83;;;1.50;;
74833;SDS011;63361;52.384;20.930;2023-02-21T11:45:19;13.00;;;2.30;;
74833;SDS011;63361;52.384;20.930;2023-02-21T11:47:56;10.57;;;2.55;;
74833;SDS011;63361;52.384;20.930;2023-02-21T11:50:28;11.68;;;2.05;;
74833;SDS011;63361;52.384;20.930;2023-02-21T12:01:24;9.23;;;2.22;;
74833;SDS011;63361;52.384;20.930;2023-02-21T12:04:06;11.70;;;2.42;;
74833;SDS011;63361;52.384;20.930;2023-02-21T12:10:00;9.60;;;2.70;;
74833;SDS011;63361;52.384;20.930;2023-02-21T12:12:57;11.80;;;2.10;;
74833;SDS011;63361;52.384;20.930;2023-02-21T12:27:30;7.28;;;1.35;;
74833;SDS011;63361;52.384;20.930;2023-02-21T12:32:50;9.40;;;1.80;;
74833;SDS011;63361;52.384;20.930;2023-02-21T12:47:18;11.50;;;1.50;;
74833;SDS011;63361;52.384;20.930;2023-02-21T12:49:54;10.85;;;1.45;;
74833;SDS011;63361;52.384;20.930;2023-02-21T12:52:33;9.57;;;1.63;;
74833;SDS011;63361;52.384;20.930;2023-02-21T12:55:06;7.60;;;1.63;;
74833;SDS011;63361;52.384;20.930;2023-02-21T12:57:57;12.23;;;2.10;;
74833;SDS011;63361;52.384;20.930;2023-02-21T13:03:46;12.20;;;1.95;;
74833;SDS011;63361;52.384;20.930;2023-02-21T13:06:44;12.37;;;1.77;;
74833;SDS011;63361;52.384;20.930;2023-02-21T13:09:18;13.55;;;1.45;;
74833;SDS011;63361;52.384;20.930;2023-02-21T13:12:23;12.02;;;2.00;;
74833;SDS011;63361;52.384;20.930;2023-02-21T13:15:12;8.60;;;1.70;;
74833;SDS011;63361;52.384;20.930;2023-02-21T13:17:40;8.82;;;1.67;;
74833;SDS011;63361;52.384;20.930;2023-02-21T13:20:09;6.30;;;1.50;;
74833;SDS011;63361;52.384;20.930;2023-02-21T13:28:35;11.73;;;2.38;;
74833;SDS011;63361;52.384;20.930;2023-02-21T13:31:31;17.35;;;3.15;;
74833;SDS011;63361;52.384;20.930;2023-02-21T13:34:05;10.80;;;3.10;;
74833;SDS011;63361;52.384;20.930;2023-02-21T13:39:31;9.93;;;2.17;;
74833;SDS011;63361;52.384;20.930;2023-02-21T13:42:24;9.73;;;1.67;;
74833;SDS011;63361;52.384;20.930;2023-02-21T13:45:04;7.30;;;1.52;;
74833;SDS011;63361;52.384;20.930;2023-02-21T13:55:35;15.02;;;2.03;;
74833;SDS011;63361;52.384;20.930;2023-02-21T14:02:58;10.98;;;1.88;;
74833;SDS011;63361;52.384;20.930;2023-02-21T14:08:33;15.67;;;3.10;;
74833;SDS011;63361;52.384;20.930;2023-02-21T14:11:26;13.82;;;3.25;;
74833;SDS011;63361;52.384;20.930;2023-02-21T14:13:57;24.67;;;8.65;;
74833;SDS011;63361;52.384;20.930;2023-02-21T14:21:55;10.43;;;2.17;;
74833;SDS011;63361;52.384;20.930;2023-02-21T14:24:29;10.27;;;1.92;;
74833;SDS011;63361;52.384;20.930;2023-02-21T14:32:36;8.57;;;1.70;;
74833;SDS011;63361;52.384;20.930;2023-02-21T14:35:13;9.53;;;2.30;;
74833;SDS011;63361;52.384;20.930;2023-02-21T14:37:56;11.45;;;2.15;;
74833;SDS011;63361;52.384;20.930;2023-02-21T14:40:34;11.40;;;2.88;;
74833;SDS011;63361;52.384;20.930;2023-02-21T14:58:04;12.65;;;2.05;;
74833;SDS011;63361;52.384;20.930;2023-02-21T15:01:04;14.85;;;2.53;;
74833;SDS011;63361;52.384;20.930;2023-02-21T15:03:36;13.23;;;2.17;;
74833;SDS011;63361;52.384;20.930;2023-02-21T15:06:21;16.70;;;2.65;;
74833;SDS011;63361;52.384;20.930;2023-02-21T15:08:50;16.10;;;3.03;;
74833;SDS011;63361;52.384;20.930;2023-02-21T15:11:30;13.80;;;2.60;;
74833;SDS011;63361;52.384;20.930;2023-02-21T15:14:12;12.20;;;2.05;;
74833;SDS011;63361;52.384;20.930;2023-02-21T15:16:48;16.57;;;2.90;;
74833;SDS011;63361;52.384;20.930;2023-02-21T15:19:24;16.20;;;3.70;;
74833;SDS011;63361;52.384;20.930;2023-02-21T15:27:22;10.65;;;2.72;;
74833;SDS011;63361;52.384;20.930;2023-02-21T15:30:02;16.17;;;2.90;;
74833;SDS011;63361;52.384;20.930;2023-02-21T15:32:37;18.77;;;2.85;;
74833;SDS011;63361;52.384;20.930;2023-02-21T15:35:04;19.30;;;3.15;;
74833;SDS011;63361;52.384;20.930;2023-02-21T15:37:35;17.65;;;2.95;;
74833;SDS011;63361;52.384;20.930;2023-02-21T15:40:25;19.27;;;4.03;;
74833;SDS011;63361;52.384;20.930;2023-02-21T15:42:51;18.35;;;3.58;;
74833;SDS011;63361;52.384;20.930;2023-02-21T15:45:23;20.00;;;3.58;;
74833;SDS011;63361;52.384;20.930;2023-02-21T15:47:59;16.48;;;3.88;;
74833;SDS011;63361;52.384;20.930;2023-02-21T15:50:30;14.80;;;3.58;;
74833;SDS011;63361;52.384;20.930;2023-02-21T15:55:46;19.40;;;3.55;;
74833;SDS011;63361;52.384;20.930;2023-02-21T15:58:13;22.80;;;4.30;;
74833;SDS011;63361;52.384;20.930;2023-02-21T16:00:40;19.02;;;4.35;;
74833;SDS011;63361;52.384;20.930;2023-02-21T16:08:59;19.17;;;4.20;;
74833;SDS011;63361;52.384;20.930;2023-02-21T16:14:16;25.52;;;8.05;;
74833;SDS011;63361;52.384;20.930;2023-02-21T16:17:04;23.17;;;4.78;;
74833;SDS011;63361;52.384;20.930;2023-02-21T16:20:00;24.97;;;5.20;;
74833;SDS011;63361;52.384;20.930;2023-02-21T16:22:47;13.88;;;3.25;;
74833;SDS011;63361;52.384;20.930;2023-02-21T16:25:21;19.52;;;3.65;;
74833;SDS011;63361;52.384;20.930;2023-02-21T16:30:19;22.17;;;4.07;;
74833;SDS011;63361;52.384;20.930;2023-02-21T16:32:47;18.40;;;3.40;;
74833;SDS011;63361;52.384;20.930;2023-02-21T16:35:16;20.65;;;4.10;;
74833;SDS011;63361;52.384;20.930;2023-02-21T16:37:45;15.60;;;2.90;;
74833;SDS011;63361;52.384;20.930;2023-02-21T16:40:17;19.02;;;3.40;;
74833;SDS011;63361;52.384;20.930;2023-02-21T16:42:49;18.20;;;3.28;;
74833;SDS011;63361;52.384;20.930;2023-02-21T16:45:16;17.13;;;3.70;;
74833;SDS011;63361;52.384;20.930;2023-02-21T16:47:41;19.25;;;4.05;;
74833;SDS011;63361;52.384;20.930;2023-02-21T16:50:25;19.67;;;4.40;;
74833;SDS011;63361;52.384;20.930;2023-02-21T16:52:53;25.70;;;4.47;;
74833;SDS011;63361;52.384;20.930;2023-02-21T16:55:19;34.00;;;10.82;;
74833;SDS011;63361;52.384;20.930;2023-02-21T16:57:45;39.83;;;14.73;;
74833;SDS011;63361;52.384;20.930;2023-02-21T17:00:16;19.48;;;7.03;;
74833;SDS011;63361;52.384;20.930;2023-02-21T17:02:44;17.90;;;5.13;;
74833;SDS011;63361;52.384;20.930;2023-02-21T17:05:10;20.00;;;3.60;;
74833;SDS011;63361;52.384;20.930;2023-02-21T17:07:36;18.63;;;3.20;;
74833;SDS011;63361;52.384;20.930;2023-02-21T17:10:02;17.05;;;3.30;;
74833;SDS011;63361;52.384;20.930;2023-02-21T17:12:30;22.43;;;4.00;;
74833;SDS011;63361;52.384;20.930;2023-02-21T17:14:56;15.40;;;3.88;;
74833;SDS011;63361;52.384;20.930;2023-02-21T17:17:21;18.70;;;3.07;;
74833;SDS011;63361;52.384;20.930;2023-02-21T17:19:47;14.15;;;3.38;;
74833;SDS011;63361;52.384;20.930;2023-02-21T17:22:12;26.33;;;3.87;;
74833;SDS011;63361;52.384;20.930;2023-02-21T17:24:37;17.93;;;3.43;;
74833;SDS011;63361;52.384;20.930;2023-02-21T17:27:03;19.77;;;3.65;;
74833;SDS011;63361;52.384;20.930;2023-02-21T17:29:29;26.33;;;3.50;;
74833;SDS011;63361;52.384;20.930;2023-02-21T17:31:54;23.13;;;6.73;;
74833;SDS011;63361;52.384;20.930;2023-02-21T17:34:21;18.55;;;4.35;;
74833;SDS011;63361;52.384;20.930;2023-02-21T17:36:50;21.73;;;4.67;;
74833;SDS011;63361;52.384;20.930;2023-02-21T17:39:16;19.95;;;4.95;;
74833;SDS011;63361;52.384;20.930;2023-02-21T17:41:46;21.67;;;4.07;;
74833;SDS011;63361;52.384;20.930;2023-02-21T17:44:12;23.17;;;4.72;;
74833;SDS011;63361;52.384;20.930;2023-02-21T17:46:38;17.80;;;3.60;;